Time;durP1;ratioP1;P1;durP2;ratioP2;P2;SDS_P1;SDS_P2;PMS_P1;PMS_P2;Temp;Humidity;BMP_temperature;BMP_pressure;BME280_temperature;BME280_humidity;BME280_pressure;Samples;Min_cycle;Max_cycle;Signal;HPM_P1;HPM_P2
2023/09/19 00:00:22;;;;;;;0.73;0.73;;;16.50;99.90;;;;;;5084475;28;20687;-76
2023/09/19 00:02:57;;;;;;;3.50;0.90;;;16.50;99.90;;;;;;5083169;28;20635;-76
2023/09/19 00:05:27;;;;;;;0.73;0.67;;;16.50;99.90;;;;;;5082900;28;20641;-76
2023/09/19 00:07:54;;;;;;;0.83;0.83;;;16.60;99.90;;;;;;5084730;28;20640;-76
2023/09/19 00:10:23;;;;;;;2.07;1.40;;;16.60;99.90;;;;;;5083394;28;20644;-76
2023/09/19 00:12:51;;;;;;;1.90;0.80;;;16.50;99.90;;;;;;5083032;28;20685;-77
2023/09/19 00:15:18;;;;;;;0.83;0.63;;;16.50;99.90;;;;;;5082826;28;20631;-76
2023/09/19 00:17:45;;;;;;;2.33;0.57;;;16.50;99.90;;;;;;5083488;28;21058;-76
2023/09/19 00:20:17;;;;;;;0.73;0.73;;;16.50;99.90;;;;;;5084764;28;21643;-76
2023/09/19 00:22:43;;;;;;;2.20;1.23;;;16.60;99.90;;;;;;5084059;28;20625;-76
2023/09/19 00:25:11;;;;;;;2.43;0.97;;;16.50;99.90;;;;;;5082317;28;20780;-77
2023/09/19 00:27:41;;;;;;;1.37;0.70;;;16.50;99.90;;;;;;5083916;28;20706;-76
2023/09/19 00:30:15;;;;;;;1.23;1.10;;;16.60;99.90;;;;;;5083740;28;20635;-77
2023/09/19 00:32:42;;;;;;;1.20;1.10;;;16.50;99.90;;;;;;5083444;28;21661;-76
2023/09/19 00:35:10;;;;;;;0.60;0.60;;;16.50;99.90;;;;;;5083315;28;20628;-77
2023/09/19 00:37:40;;;;;;;1.10;0.73;;;16.50;99.90;;;;;;5083025;28;20719;-77
2023/09/19 00:40:11;;;;;;;1.10;0.87;;;16.40;99.90;;;;;;5081662;28;20633;-76
2023/09/19 00:42:38;;;;;;;0.70;0.70;;;16.50;99.90;;;;;;5083547;28;20632;-77
2023/09/19 00:45:09;;;;;;;0.67;0.60;;;16.50;99.90;;;;;;5084393;28;20627;-77
2023/09/19 00:47:37;;;;;;;0.50;0.50;;;16.60;99.90;;;;;;5083701;28;20638;-77
2023/09/19 00:50:07;;;;;;;0.50;0.50;;;16.60;99.90;;;;;;5082357;28;20735;-77
2023/09/19 00:52:36;;;;;;;1.27;0.60;;;16.50;99.90;;;;;;5081008;28;21189;-77
2023/09/19 00:55:06;;;;;;;1.37;0.97;;;16.60;99.90;;;;;;5083569;28;21090;-77
2023/09/19 00:57:34;;;;;;;1.13;1.00;;;16.60;99.90;;;;;;5083692;28;20635;-77
2023/09/19 01:00:05;;;;;;;2.70;0.80;;;16.40;99.90;;;;;;5082493;28;20640;-77
2023/09/19 01:02:32;;;;;;;0.60;0.60;;;16.40;99.90;;;;;;5080523;28;20649;-77
2023/09/19 01:04:59;;;;;;;0.70;0.70;;;16.40;99.90;;;;;;5081588;28;20624;-77
2023/09/19 01:07:29;;;;;;;1.00;0.80;;;16.50;99.90;;;;;;5083287;28;20676;-77
2023/09/19 01:09:58;;;;;;;1.27;0.80;;;16.40;99.90;;;;;;5083321;28;20647;-77
2023/09/19 01:12:34;;;;;;;0.80;0.73;;;16.50;99.90;;;;;;5080484;28;20706;-78
2023/09/19 01:15:11;;;;;;;0.70;0.70;;;16.40;99.90;;;;;;5082436;28;20705;-77
2023/09/19 01:17:46;;;;;;;0.53;0.53;;;16.40;99.90;;;;;;5083118;28;21038;-77
2023/09/19 01:20:23;;;;;;;0.80;0.70;;;16.40;99.90;;;;;;5081770;28;20639;-77
2023/09/19 01:23:03;;;;;;;2.10;0.57;;;16.40;99.90;;;;;;5081695;28;20960;-77
2023/09/19 01:26:09;;;;;;;1.10;0.70;;;16.40;99.90;;;;;;5082174;28;20626;-77
2023/09/19 01:28:55;;;;;;;0.60;0.60;;;16.40;99.90;;;;;;5098226;27;20793;-77
2023/09/19 01:31:26;;;;;;;1.43;0.80;;;16.50;99.90;;;;;;5083119;28;20661;-77
2023/09/19 01:33:59;;;;;;;0.83;0.83;;;16.30;99.90;;;;;;5083427;28;20640;-77
2023/09/19 01:36:34;;;;;;;0.70;0.60;;;16.40;99.90;;;;;;5081035;28;20678;-77
2023/09/19 01:39:05;;;;;;;2.97;1.07;;;16.40;99.90;;;;;;5082087;28;20608;-77
2023/09/19 01:41:51;;;;;;;1.10;1.00;;;16.40;99.90;;;;;;5081680;28;20648;-77
2023/09/19 01:44:30;;;;;;;0.50;0.50;;;16.30;99.90;;;;;;5082313;28;20629;-77
2023/09/19 01:47:05;;;;;;;1.43;0.70;;;16.40;99.90;;;;;;5081156;28;20615;-77
2023/09/19 01:49:43;;;;;;;0.50;0.50;;;16.40;99.90;;;;;;5081259;28;20616;-77
2023/09/19 01:52:16;;;;;;;1.70;0.80;;;16.50;99.90;;;;;;5081601;28;20633;-77
2023/09/19 01:54:51;;;;;;;0.80;0.60;;;16.40;99.90;;;;;;5082316;28;22477;-77
2023/09/19 01:57:28;;;;;;;0.80;0.57;;;16.50;99.90;;;;;;5082403;28;20659;-77
2023/09/19 02:00:02;;;;;;;0.43;0.43;;;16.50;99.90;;;;;;5081792;28;20638;-77
2023/09/19 02:02:36;;;;;;;2.90;2.00;;;16.50;99.90;;;;;;5079693;28;20658;-77
2023/09/19 02:05:03;;;;;;;0.63;0.63;;;16.50;99.90;;;;;;5082995;28;21193;-77
2023/09/19 02:07:31;;;;;;;0.53;0.53;;;16.50;99.90;;;;;;5082325;28;20615;-77
2023/09/19 02:10:01;;;;;;;0.43;0.40;;;16.40;99.90;;;;;;5081291;28;21123;-77
2023/09/19 02:12:28;;;;;;;1.07;0.70;;;16.40;99.90;;;;;;5081476;28;21241;-76
2023/09/19 02:14:56;;;;;;;0.83;0.50;;;16.40;99.90;;;;;;5082340;28;21202;-77
2023/09/19 02:17:25;;;;;;;0.77;0.50;;;16.40;99.90;;;;;;5082289;28;21271;-77
2023/09/19 02:19:56;;;;;;;1.93;0.80;;;16.40;99.90;;;;;;5082611;28;21803;-77
2023/09/19 02:22:24;;;;;;;0.77;0.77;;;16.30;99.90;;;;;;5080934;28;20648;-77
2023/09/19 02:24:53;;;;;;;0.80;0.70;;;16.40;99.90;;;;;;5081249;28;20639;-76
2023/09/19 02:27:21;;;;;;;0.60;0.60;;;16.40;99.90;;;;;;5081688;28;21280;-77
2023/09/19 02:29:49;;;;;;;0.50;0.50;;;16.30;99.90;;;;;;5081796;28;21188;-76
2023/09/19 02:32:18;;;;;;;2.03;0.77;;;16.30;99.90;;;;;;5080342;28;20632;-76
2023/09/19 02:34:46;;;;;;;0.80;0.70;;;16.30;99.90;;;;;;5079694;28;20729;-76
2023/09/19 02:37:16;;;;;;;0.57;0.40;;;16.20;99.90;;;;;;5081739;28;20624;-76
2023/09/19 02:39:43;;;;;;;1.17;0.77;;;16.30;99.90;;;;;;5082579;28;20630;-77
2023/09/19 02:42:11;;;;;;;1.20;1.07;;;16.30;99.90;;;;;;5081793;28;21499;-76
2023/09/19 02:44:39;;;;;;;0.40;0.30;;;16.20;99.90;;;;;;5079667;28;20993;-76
2023/09/19 02:47:07;;;;;;;0.67;0.60;;;16.20;99.90;;;;;;5080126;28;20642;-76
2023/09/19 02:49:35;;;;;;;0.80;0.80;;;16.20;99.90;;;;;;5081776;28;20629;-77
2023/09/19 02:52:03;;;;;;;0.70;0.50;;;16.10;99.90;;;;;;5081569;28;20625;-77
2023/09/19 02:54:33;;;;;;;0.87;0.77;;;16.10;99.90;;;;;;5082309;28;20640;-76
2023/09/19 02:57:00;;;;;;;0.53;0.50;;;16.00;99.90;;;;;;5081983;28;20721;-76
2023/09/19 02:59:30;;;;;;;0.73;0.73;;;16.00;99.90;;;;;;5081593;28;20960;-77
2023/09/19 03:01:57;;;;;;;1.00;0.80;;;16.00;99.90;;;;;;5081740;28;20743;-76
2023/09/19 03:04:27;;;;;;;1.27;0.40;;;16.10;99.90;;;;;;5081759;28;20630;-77
2023/09/19 03:06:58;;;;;;;0.83;0.83;;;16.10;99.90;;;;;;5084861;28;20994;-76
2023/09/19 03:09:25;;;;;;;3.27;1.20;;;16.10;99.90;;;;;;5084392;28;20656;-77
2023/09/19 03:11:54;;;;;;;0.57;0.57;;;16.20;99.90;;;;;;5084110;28;21240;-76
2023/09/19 03:14:23;;;;;;;0.60;0.60;;;16.20;99.90;;;;;;5084445;28;20633;-76
2023/09/19 03:16:52;;;;;;;1.57;1.07;;;16.20;99.90;;;;;;5084737;28;20624;-77
2023/09/19 03:19:20;;;;;;;0.50;0.40;;;16.10;99.90;;;;;;5084903;28;20670;-77
2023/09/19 03:21:49;;;;;;;1.17;0.60;;;16.20;99.90;;;;;;5085807;28;20757;-76
2023/09/19 03:24:16;;;;;;;0.57;0.57;;;16.20;99.90;;;;;;5083707;28;20643;-76
2023/09/19 03:26:42;;;;;;;0.73;0.60;;;16.30;99.90;;;;;;5085388;28;20696;-77
2023/09/19 03:29:11;;;;;;;0.53;0.53;;;16.20;99.90;;;;;;5085570;28;20637;-77
2023/09/19 03:31:38;;;;;;;0.50;0.40;;;16.20;99.90;;;;;;5083923;28;21345;-77
2023/09/19 03:34:05;;;;;;;2.10;0.80;;;16.20;99.90;;;;;;5084197;28;21924;-77
2023/09/19 03:36:35;;;;;;;0.80;0.60;;;16.20;99.90;;;;;;5083774;28;20631;-78
2023/09/19 03:39:05;;;;;;;1.47;0.77;;;16.20;99.90;;;;;;5084480;28;20741;-77
2023/09/19 03:41:32;;;;;;;0.97;0.70;;;16.30;99.90;;;;;;5085645;28;20719;-77
2023/09/19 03:44:00;;;;;;;0.83;0.83;;;16.30;99.90;;;;;;5083504;28;21076;-76
2023/09/19 03:46:28;;;;;;;1.50;1.40;;;16.20;99.90;;;;;;5084504;28;20625;-77
2023/09/19 03:48:55;;;;;;;1.07;0.73;;;16.30;99.90;;;;;;5084510;28;20620;-77
2023/09/19 03:51:22;;;;;;;1.00;0.90;;;16.30;99.90;;;;;;5085658;28;20618;-77
2023/09/19 03:53:50;;;;;;;0.90;0.67;;;16.30;99.90;;;;;;5082829;28;21094;-76
2023/09/19 03:56:16;;;;;;;0.97;0.87;;;16.20;99.90;;;;;;5083062;28;20638;-77
2023/09/19 03:58:44;;;;;;;1.63;1.00;;;16.20;99.90;;;;;;5083666;28;20675;-77
2023/09/19 04:01:13;;;;;;;0.63;0.60;;;16.30;99.90;;;;;;5085443;28;20717;-77
2023/09/19 04:03:47;;;;;;;4.53;0.77;;;16.30;99.90;;;;;;5084737;28;20718;-77
2023/09/19 04:06:14;;;;;;;0.77;0.77;;;16.40;99.90;;;;;;5083142;28;20627;-77
2023/09/19 04:08:41;;;;;;;0.87;0.87;;;16.40;99.90;;;;;;5083391;28;21237;-76
2023/09/19 04:11:08;;;;;;;0.80;0.80;;;16.30;99.90;;;;;;5083660;28;20635;-77
2023/09/19 04:13:35;;;;;;;0.80;0.70;;;16.30;99.90;;;;;;5083886;28;20631;-76
2023/09/19 04:16:03;;;;;;;2.00;1.07;;;16.30;99.90;;;;;;5082937;28;20654;-76
2023/09/19 04:18:32;;;;;;;4.10;0.90;;;16.20;99.90;;;;;;5083234;28;20625;-76
2023/09/19 04:21:02;;;;;;;0.87;0.70;;;16.20;99.90;;;;;;5083071;28;21116;-76
2023/09/19 04:23:29;;;;;;;0.90;0.73;;;16.20;99.90;;;;;;5079983;28;20656;-76
2023/09/19 04:25:57;;;;;;;1.13;1.10;;;16.20;99.90;;;;;;5075952;28;20636;-75
2023/09/19 04:28:24;;;;;;;1.00;1.00;;;16.20;99.90;;;;;;5082404;28;22416;-75
2023/09/19 04:30:51;;;;;;;1.03;0.90;;;16.20;99.90;;;;;;5082173;28;20632;-75
2023/09/19 04:33:18;;;;;;;2.60;1.20;;;16.30;99.90;;;;;;5082045;28;20935;-76
2023/09/19 04:35:44;;;;;;;2.90;0.90;;;16.20;99.90;;;;;;5081910;28;20639;-75
2023/09/19 04:38:13;;;;;;;1.20;0.97;;;16.30;99.90;;;;;;5081495;28;21063;-77
2023/09/19 04:40:40;;;;;;;0.80;0.63;;;16.20;99.90;;;;;;5084079;28;20708;-77
2023/09/19 04:43:07;;;;;;;1.40;1.20;;;16.20;99.90;;;;;;5082196;28;21269;-78
2023/09/19 04:45:34;;;;;;;1.30;0.73;;;16.20;99.90;;;;;;5079749;28;20625;-77
2023/09/19 04:48:02;;;;;;;0.77;0.77;;;16.20;99.90;;;;;;5078112;28;20623;-79
2023/09/19 04:50:29;;;;;;;0.80;0.80;;;16.20;99.90;;;;;;5080547;28;20771;-77
2023/09/19 04:52:56;;;;;;;1.13;1.00;;;16.30;99.90;;;;;;5072763;28;20639;-76
2023/09/19 04:55:24;;;;;;;0.80;0.80;;;16.20;99.90;;;;;;5078261;28;20632;-78
2023/09/19 04:57:52;;;;;;;1.13;1.03;;;16.20;99.90;;;;;;5083001;28;21022;-78
2023/09/19 05:00:23;;;;;;;1.13;1.07;;;16.30;99.90;;;;;;5082682;28;20692;-78
2023/09/19 05:02:51;;;;;;;0.83;0.83;;;16.30;99.90;;;;;;5081390;28;20653;-75
2023/09/19 05:05:18;;;;;;;0.60;0.60;;;16.20;99.90;;;;;;5080243;28;20625;-76
2023/09/19 05:07:46;;;;;;;1.53;1.10;;;16.20;99.90;;;;;;5081310;28;20634;-76
2023/09/19 05:10:13;;;;;;;0.90;0.83;;;16.20;99.90;;;;;;5080738;28;20652;-77
2023/09/19 05:12:43;;;;;;;0.80;0.80;;;16.20;99.90;;;;;;5081421;28;20631;-77
2023/09/19 05:15:10;;;;;;;1.90;1.70;;;16.20;99.90;;;;;;5080869;28;20638;-76
2023/09/19 05:17:38;;;;;;;1.50;1.23;;;16.00;99.90;;;;;;5080824;28;20635;-76
2023/09/19 05:20:14;;;;;;;1.43;1.27;;;16.00;99.90;;;;;;5083125;28;20615;-76
2023/09/19 05:22:41;;;;;;;0.90;0.90;;;16.10;99.90;;;;;;5082270;28;20661;-76
2023/09/19 05:25:08;;;;;;;0.70;0.70;;;16.20;99.90;;;;;;5083182;28;20633;-76
2023/09/19 05:27:35;;;;;;;1.43;1.43;;;16.20;99.90;;;;;;5081292;28;21160;-76
2023/09/19 05:30:05;;;;;;;2.90;1.50;;;16.10;99.90;;;;;;5082200;28;20635;-77
2023/09/19 05:32:31;;;;;;;1.00;0.93;;;16.10;99.90;;;;;;5082121;28;20626;-76
2023/09/19 05:34:58;;;;;;;1.00;1.00;;;16.10;99.90;;;;;;5081822;28;20635;-76
2023/09/19 05:37:26;;;;;;;1.07;0.97;;;16.20;99.90;;;;;;5082977;28;20680;-76
2023/09/19 05:39:53;;;;;;;1.87;1.03;;;16.10;99.90;;;;;;5080273;28;20629;-74
2023/09/19 05:42:20;;;;;;;0.70;0.70;;;16.10;99.90;;;;;;5081049;28;20668;-74
2023/09/19 05:44:47;;;;;;;1.20;0.90;;;16.10;99.90;;;;;;5073643;28;20635;-74
2023/09/19 05:47:15;;;;;;;1.30;1.17;;;16.10;99.90;;;;;;5075074;28;21185;-74
2023/09/19 05:49:42;;;;;;;1.20;1.10;;;16.00;99.90;;;;;;5080692;28;20643;-74
2023/09/19 05:52:09;;;;;;;1.80;1.23;;;16.00;99.90;;;;;;5080106;28;20634;-74
2023/09/19 05:54:37;;;;;;;1.50;1.40;;;16.00;99.90;;;;;;5080437;28;20624;-73
2023/09/19 05:57:04;;;;;;;2.33;1.87;;;16.00;99.90;;;;;;5082523;28;20648;-74
2023/09/19 05:59:33;;;;;;;2.10;1.90;;;16.00;99.90;;;;;;5082680;28;21038;-73
2023/09/19 06:02:00;;;;;;;2.07;1.63;;;15.90;99.90;;;;;;5080215;28;20631;-73
2023/09/19 06:04:30;;;;;;;1.47;1.00;;;15.90;99.90;;;;;;5079785;28;20625;-74
2023/09/19 06:06:58;;;;;;;1.10;0.97;;;15.80;99.90;;;;;;5079697;28;20636;-74
2023/09/19 06:09:26;;;;;;;1.67;1.43;;;15.90;99.90;;;;;;5080684;28;20644;-74
2023/09/19 06:11:53;;;;;;;0.87;0.87;;;15.90;99.90;;;;;;5081291;28;20623;-74
2023/09/19 06:14:20;;;;;;;0.80;0.80;;;15.80;99.90;;;;;;5079754;28;21602;-74
2023/09/19 06:16:47;;;;;;;1.10;0.73;;;15.70;99.90;;;;;;5080979;28;20624;-74
2023/09/19 06:19:13;;;;;;;0.73;0.70;;;15.60;99.90;;;;;;5081702;28;20630;-74
2023/09/19 06:21:42;;;;;;;1.37;0.80;;;15.60;99.90;;;;;;5082013;28;20639;-73
2023/09/19 06:24:09;;;;;;;1.10;1.00;;;15.60;99.90;;;;;;5080896;28;20663;-75
2023/09/19 06:26:35;;;;;;;2.20;1.10;;;15.70;99.90;;;;;;5079156;28;21166;-74
2023/09/19 06:29:07;;;;;;;1.83;1.20;;;15.60;99.90;;;;;;5080928;28;21377;-75
2023/09/19 06:31:34;;;;;;;1.10;1.10;;;15.60;99.90;;;;;;5081130;28;21190;-74
2023/09/19 06:34:01;;;;;;;0.90;0.90;;;15.50;99.90;;;;;;5080835;28;20642;-74
2023/09/19 06:36:28;;;;;;;1.30;1.00;;;15.70;99.90;;;;;;5080411;28;20640;-74
2023/09/19 06:38:56;;;;;;;1.70;1.07;;;15.60;99.90;;;;;;5081365;28;20645;-74
2023/09/19 06:41:24;;;;;;;1.00;1.00;;;15.70;99.90;;;;;;5084976;28;21194;-74
2023/09/19 06:43:53;;;;;;;3.50;1.73;;;15.60;99.90;;;;;;5085206;28;21185;-74
2023/09/19 06:46:20;;;;;;;2.50;1.40;;;15.70;99.90;;;;;;5084787;28;20632;-74
2023/09/19 06:48:49;;;;;;;0.87;0.87;;;15.70;99.90;;;;;;5084088;28;20633;-74
2023/09/19 06:51:16;;;;;;;1.80;1.23;;;15.60;99.90;;;;;;5083304;28;20726;-74
2023/09/19 06:53:43;;;;;;;1.27;1.17;;;15.70;99.90;;;;;;5085666;28;21536;-75
2023/09/19 06:56:11;;;;;;;1.77;1.33;;;15.70;99.90;;;;;;5081891;28;20662;-74
2023/09/19 06:58:38;;;;;;;2.80;1.20;;;15.60;99.90;;;;;;5085627;28;20633;-75
2023/09/19 07:01:05;;;;;;;1.77;1.00;;;15.70;99.90;;;;;;5083027;28;21046;-74
2023/09/19 07:03:33;;;;;;;2.10;0.87;;;15.80;99.90;;;;;;5081621;28;21445;-76
2023/09/19 07:06:00;;;;;;;1.43;1.33;;;15.70;99.90;;;;;;5080797;28;20658;-75
2023/09/19 07:08:29;;;;;;;2.70;1.17;;;15.80;99.90;;;;;;5082912;28;20630;-75
2023/09/19 07:10:57;;;;;;;1.27;1.07;;;15.80;99.90;;;;;;5082843;28;20620;-75
2023/09/19 07:13:25;;;;;;;1.27;1.10;;;15.80;99.90;;;;;;5082049;28;20632;-75
2023/09/19 07:15:52;;;;;;;1.00;0.90;;;15.90;99.90;;;;;;5081505;28;21598;-75
2023/09/19 07:18:24;;;;;;;1.20;1.10;;;16.00;99.90;;;;;;5084011;28;20644;-75
2023/09/19 07:20:51;;;;;;;0.97;0.87;;;16.10;99.90;;;;;;5083051;28;20634;-75
2023/09/19 07:23:22;;;;;;;1.30;1.20;;;16.10;99.90;;;;;;5082512;28;20656;-75
2023/09/19 07:25:51;;;;;;;1.70;1.60;;;16.00;99.90;;;;;;5081443;28;20609;-75
2023/09/19 07:28:19;;;;;;;4.60;1.30;;;16.00;99.90;;;;;;5082989;28;20645;-75
2023/09/19 07:30:52;;;;;;;0.93;0.93;;;16.00;99.90;;;;;;5083049;28;20963;-75
2023/09/19 07:33:19;;;;;;;1.47;1.20;;;16.00;99.90;;;;;;5083265;28;21011;-75
2023/09/19 07:35:53;;;;;;;1.40;1.30;;;16.00;99.90;;;;;;5081054;28;20635;-75
2023/09/19 07:38:20;;;;;;;1.50;1.40;;;16.10;99.90;;;;;;5083132;28;21238;-75
2023/09/19 07:40:50;;;;;;;2.10;0.90;;;16.20;99.90;;;;;;5083319;28;21013;-74
2023/09/19 07:43:17;;;;;;;0.80;0.80;;;16.10;99.90;;;;;;5082895;28;20761;-74
2023/09/19 07:45:44;;;;;;;1.33;1.00;;;16.20;99.90;;;;;;5083021;28;20629;-75
2023/09/19 07:48:15;;;;;;;0.90;0.90;;;16.20;99.90;;;;;;5082803;28;20632;-75
2023/09/19 07:50:43;;;;;;;1.50;1.50;;;16.30;99.90;;;;;;5080879;28;20659;-74
2023/09/19 07:53:13;;;;;;;1.43;1.10;;;16.30;99.90;;;;;;5080895;28;20632;-74
2023/09/19 07:55:40;;;;;;;1.10;1.00;;;16.30;99.90;;;;;;5082909;28;20973;-74
2023/09/19 07:58:08;;;;;;;1.47;1.37;;;16.20;99.90;;;;;;5082307;28;20634;-76
2023/09/19 08:00:34;;;;;;;1.40;1.30;;;16.30;99.90;;;;;;5083041;28;20661;-74
2023/09/19 08:03:03;;;;;;;2.30;1.30;;;16.40;99.90;;;;;;5083483;28;20742;-74
2023/09/19 08:05:33;;;;;;;0.93;0.77;;;16.50;99.90;;;;;;5082456;28;20705;-75
2023/09/19 08:08:01;;;;;;;1.43;1.03;;;16.60;99.90;;;;;;5081844;28;20608;-74
2023/09/19 08:10:35;;;;;;;0.80;0.80;;;16.80;99.90;;;;;;5082850;28;21233;-75
2023/09/19 08:13:02;;;;;;;1.63;1.20;;;16.80;99.90;;;;;;5082443;28;20625;-74
2023/09/19 08:15:29;;;;;;;2.20;1.20;;;16.80;99.90;;;;;;5082058;28;20624;-74
2023/09/19 08:17:56;;;;;;;1.10;1.00;;;17.10;99.90;;;;;;5082853;28;20640;-75
2023/09/19 08:20:22;;;;;;;1.10;1.00;;;17.20;99.90;;;;;;5084167;28;20623;-75
2023/09/19 08:22:54;;;;;;;1.23;0.97;;;17.30;99.90;;;;;;5083164;28;20988;-75
2023/09/19 08:25:21;;;;;;;1.33;1.23;;;17.40;99.90;;;;;;5080763;28;21275;-75
2023/09/19 08:27:49;;;;;;;0.70;0.70;;;17.40;99.90;;;;;;5080536;28;20624;-75
2023/09/19 08:30:17;;;;;;;1.10;1.00;;;17.40;99.90;;;;;;5080549;28;20625;-74
2023/09/19 08:32:46;;;;;;;0.90;0.90;;;17.40;99.90;;;;;;5081947;28;20986;-75
2023/09/19 08:35:13;;;;;;;1.10;1.00;;;17.40;99.90;;;;;;5078349;28;20629;-75
2023/09/19 08:37:39;;;;;;;5.80;1.10;;;17.50;99.90;;;;;;5079975;28;20631;-75
2023/09/19 08:40:09;;;;;;;0.90;0.90;;;17.60;99.90;;;;;;5081724;28;21602;-75
2023/09/19 08:42:49;;;;;;;1.30;1.20;;;17.70;99.90;;;;;;5081723;28;20615;-75
2023/09/19 08:45:16;;;;;;;1.00;1.00;;;17.70;99.90;;;;;;5081275;28;20621;-75
2023/09/19 08:47:48;;;;;;;0.90;0.90;;;17.80;99.90;;;;;;5082276;28;20751;-74
2023/09/19 08:50:25;;;;;;;1.07;1.00;;;17.80;99.90;;;;;;5081695;28;20679;-75
2023/09/19 08:52:53;;;;;;;1.17;1.10;;;17.80;99.90;;;;;;5081899;28;22200;-75
2023/09/19 08:55:27;;;;;;;1.50;1.40;;;17.90;99.90;;;;;;5081249;28;20622;-74
2023/09/19 08:58:01;;;;;;;2.57;1.53;;;17.80;99.90;;;;;;5082274;28;20663;-74
2023/09/19 09:00:29;;;;;;;1.50;1.27;;;17.80;99.90;;;;;;5081729;28;21095;-74
2023/09/19 09:02:57;;;;;;;1.17;0.90;;;17.90;99.90;;;;;;5082028;28;21094;-75
2023/09/19 09:05:26;;;;;;;1.73;0.90;;;18.00;99.90;;;;;;5080182;28;20980;-75
2023/09/19 09:07:56;;;;;;;1.67;1.50;;;18.10;99.90;;;;;;5079828;28;20641;-74
2023/09/19 09:10:24;;;;;;;1.30;1.20;;;18.20;99.90;;;;;;5081533;28;20732;-74
2023/09/19 09:12:53;;;;;;;1.23;1.13;;;18.50;99.90;;;;;;5082622;28;20644;-74
2023/09/19 09:15:21;;;;;;;1.03;1.00;;;18.40;99.90;;;;;;5081264;28;20635;-74
2023/09/19 09:17:50;;;;;;;1.37;1.10;;;18.40;99.90;;;;;;5083127;28;20887;-74
2023/09/19 09:20:17;;;;;;;1.37;1.20;;;18.20;99.90;;;;;;5081547;28;20665;-75
2023/09/19 09:22:53;;;;;;;1.73;1.43;;;18.20;99.90;;;;;;5080840;28;21289;-75
2023/09/19 09:25:23;;;;;;;2.87;1.77;;;18.20;99.90;;;;;;5080841;28;21187;-74
2023/09/19 09:28:00;;;;;;;1.90;1.80;;;18.30;99.90;;;;;;5081997;28;20632;-75
2023/09/19 09:30:34;;;;;;;2.70;2.43;;;18.20;99.90;;;;;;5082957;28;21741;-75
2023/09/19 09:33:13;;;;;;;1.83;1.00;;;18.20;99.90;;;;;;5081919;28;21260;-75
2023/09/19 09:35:52;;;;;;;2.60;1.20;;;18.30;99.90;;;;;;5080515;28;20629;-75
2023/09/19 09:38:25;;;;;;;3.20;1.20;;;18.30;99.90;;;;;;5082600;28;20616;-75
2023/09/19 09:40:58;;;;;;;1.20;1.10;;;18.30;99.90;;;;;;5080640;28;20643;-74
2023/09/19 09:43:41;;;;;;;1.47;1.10;;;18.30;99.90;;;;;;5082718;28;21018;-75
2023/09/19 09:51:48;;;;;;;2.00;1.27;;;18.20;99.40;;;;;;5081057;28;20631;-75
2023/09/19 09:54:17;;;;;;;1.63;1.53;;;18.30;98.80;;;;;;5080472;28;20620;-75
2023/09/19 09:56:58;;;;;;;1.30;1.20;;;18.40;98.10;;;;;;5081558;28;20636;-75
2023/09/19 09:59:49;;;;;;;1.13;0.93;;;18.60;98.60;;;;;;5080844;28;21454;-75
2023/09/19 10:02:23;;;;;;;1.93;0.90;;;18.60;98.20;;;;;;5082199;28;21324;-75
2023/09/19 10:05:09;;;;;;;1.57;1.20;;;18.50;97.50;;;;;;5081053;28;20659;-75
2023/09/19 10:07:40;;;;;;;1.23;1.13;;;18.40;98.30;;;;;;5080994;28;20671;-76
2023/09/19 10:10:15;;;;;;;1.23;1.13;;;18.40;97.30;;;;;;5080888;28;20645;-75
2023/09/19 10:12:47;;;;;;;1.13;1.00;;;18.40;97.20;;;;;;5079608;28;21231;-76
2023/09/19 10:15:20;;;;;;;1.37;1.27;;;18.50;97.10;;;;;;5080981;28;20622;-75
2023/09/19 10:17:47;;;;;;;1.60;1.50;;;18.80;96.40;;;;;;5081631;28;20635;-76
2023/09/19 10:20:35;;;;;;;1.27;1.20;;;19.10;96.50;;;;;;5081015;28;20628;-77
2023/09/19 10:23:10;;;;;;;1.50;1.30;;;19.40;95.40;;;;;;5081938;28;21218;-75
2023/09/19 10:25:38;;;;;;;0.80;0.80;;;19.60;93.20;;;;;;5081102;28;20616;-77
2023/09/19 10:28:10;;;;;;;1.83;1.07;;;19.70;92.80;;;;;;5080339;28;20676;-76
2023/09/19 10:30:44;;;;;;;1.50;1.40;;;19.80;92.80;;;;;;5081617;28;20636;-76
2023/09/19 10:33:11;;;;;;;1.90;1.13;;;19.90;92.90;;;;;;5081986;28;20623;-75
2023/09/19 10:35:42;;;;;;;1.30;1.20;;;20.00;91.20;;;;;;5081071;28;20649;-76
2023/09/19 10:38:11;;;;;;;1.50;1.20;;;20.20;92.90;;;;;;5080987;28;20943;-77
2023/09/19 10:40:42;;;;;;;1.87;1.10;;;20.40;91.80;;;;;;5080446;28;21425;-76
2023/09/19 10:43:13;;;;;;;0.93;0.93;;;20.20;91.70;;;;;;5081299;28;20628;-75
2023/09/19 10:45:44;;;;;;;3.07;1.23;;;20.30;92.40;;;;;;5081347;28;20616;-76
2023/09/19 10:48:12;;;;;;;0.90;0.80;;;20.40;90.00;;;;;;5081169;28;20627;-75
2023/09/19 10:50:46;;;;;;;1.53;1.20;;;20.50;90.70;;;;;;5080602;28;20632;-75
2023/09/19 10:53:15;;;;;;;0.93;0.93;;;20.50;90.30;;;;;;5081506;28;20623;-75
2023/09/19 10:55:49;;;;;;;1.20;1.13;;;20.40;89.30;;;;;;5081147;28;20621;-75
2023/09/19 10:58:28;;;;;;;1.00;1.00;;;20.20;86.30;;;;;;5079742;28;20629;-75
2023/09/19 11:01:02;;;;;;;1.83;0.93;;;20.20;85.30;;;;;;5079710;28;20655;-74
2023/09/19 11:03:30;;;;;;;0.60;0.60;;;20.20;87.10;;;;;;5075942;28;20636;-75
2023/09/19 11:06:09;;;;;;;0.90;0.70;;;20.50;88.70;;;;;;5077409;28;21112;-74
2023/09/19 11:08:57;;;;;;;1.80;0.83;;;20.60;89.00;;;;;;5079452;28;20633;-74
2023/09/19 11:11:46;;;;;;;0.87;0.87;;;20.90;89.70;;;;;;5078823;28;20674;-75
2023/09/19 11:14:18;;;;;;;1.90;1.00;;;20.80;86.60;;;;;;5079437;28;20979;-75
2023/09/19 11:17:21;;;;;;;1.43;0.73;;;20.80;87.20;;;;;;5078956;28;20638;-75
2023/09/19 11:23:22;;;;;;;0.70;0.70;;;20.60;86.20;;;;;;5076705;28;21234;-75
2023/09/19 11:25:50;;;;;;;1.80;1.13;;;20.70;88.60;;;;;;5081167;28;21233;-74
2023/09/19 11:28:31;;;;;;;2.57;0.93;;;21.00;86.60;;;;;;5082778;28;20645;-74
2023/09/19 11:30:59;;;;;;;1.63;1.33;;;21.20;87.50;;;;;;5083693;28;20627;-75
2023/09/19 11:33:31;;;;;;;0.70;0.70;;;21.30;85.80;;;;;;5084953;28;20631;-75
2023/09/19 11:36:03;;;;;;;1.07;0.93;;;21.10;87.10;;;;;;5083164;28;20631;-75
2023/09/19 11:39:08;;;;;;;1.30;1.00;;;20.70;85.20;;;;;;5081778;28;20633;-74
2023/09/19 11:41:39;;;;;;;1.13;1.00;;;20.90;87.40;;;;;;5083404;28;20636;-74
2023/09/19 11:44:40;;;;;;;1.87;1.20;;;20.90;87.20;;;;;;5082372;28;20658;-74
2023/09/19 11:47:09;;;;;;;0.97;0.93;;;21.10;87.70;;;;;;5081201;28;20630;-75
2023/09/19 11:49:41;;;;;;;1.70;0.90;;;21.00;85.20;;;;;;5082850;28;20641;-75
2023/09/19 11:52:09;;;;;;;3.60;1.47;;;20.90;85.80;;;;;;5082514;28;20633;-74
2023/09/19 11:54:40;;;;;;;1.27;1.00;;;20.80;87.10;;;;;;5081288;28;20620;-74
2023/09/19 11:57:08;;;;;;;1.20;1.00;;;20.90;86.60;;;;;;5079798;28;20628;-75
2023/09/19 11:59:40;;;;;;;0.83;0.83;;;20.80;87.20;;;;;;5082869;28;20683;-75
2023/09/19 12:02:10;;;;;;;0.93;0.83;;;21.00;88.10;;;;;;5081985;28;20618;-75
2023/09/19 12:04:39;;;;;;;2.00;1.00;;;21.00;87.40;;;;;;5081053;28;20659;-75
2023/09/19 12:07:14;;;;;;;1.33;1.13;;;20.70;85.30;;;;;;5081824;28;20631;-75
2023/09/19 12:09:44;;;;;;;0.77;0.77;;;20.70;86.80;;;;;;5082734;28;20641;-75
2023/09/19 12:12:13;;;;;;;1.17;0.70;;;20.60;87.90;;;;;;5080144;28;20640;-75
2023/09/19 12:14:42;;;;;;;1.00;0.70;;;20.50;87.70;;;;;;5082054;28;20630;-75
2023/09/19 12:17:09;;;;;;;0.70;0.70;;;20.60;87.60;;;;;;5081859;28;20983;-74
2023/09/19 12:19:36;;;;;;;0.80;0.77;;;20.70;89.00;;;;;;5083281;28;20998;-74
2023/09/19 12:22:05;;;;;;;1.07;0.73;;;20.60;85.60;;;;;;5080375;28;20635;-74
2023/09/19 12:24:36;;;;;;;0.77;0.77;;;20.70;85.60;;;;;;5081133;28;20658;-74
2023/09/19 12:27:06;;;;;;;1.33;1.20;;;20.70;85.30;;;;;;5083380;28;20684;-74
2023/09/19 12:29:34;;;;;;;1.13;0.90;;;20.70;85.60;;;;;;5082744;28;20997;-75
2023/09/19 12:32:03;;;;;;;1.00;0.83;;;20.80;87.00;;;;;;5080457;28;20701;-74
2023/09/19 12:34:34;;;;;;;0.77;0.77;;;21.10;87.00;;;;;;5080033;28;20634;-75
2023/09/19 12:37:15;;;;;;;3.80;1.10;;;21.20;85.90;;;;;;5083575;28;20765;-74
2023/09/19 12:39:48;;;;;;;0.80;0.80;;;21.30;85.70;;;;;;5082667;28;20641;-74
2023/09/19 12:42:16;;;;;;;0.80;0.80;;;21.40;84.80;;;;;;5080556;28;21074;-73
2023/09/19 12:44:45;;;;;;;1.10;1.00;;;21.60;86.70;;;;;;5080932;28;20686;-74
2023/09/19 12:47:19;;;;;;;1.10;1.00;;;21.80;84.50;;;;;;5082764;28;20641;-75
2023/09/19 12:50:16;;;;;;;2.20;1.17;;;21.80;83.60;;;;;;5081160;28;20630;-73
2023/09/19 12:52:47;;;;;;;1.03;0.93;;;21.60;83.80;;;;;;5081741;28;20629;-74
2023/09/19 12:55:26;;;;;;;0.80;0.80;;;21.70;81.80;;;;;;5080186;28;20617;-74
2023/09/19 12:58:18;;;;;;;1.17;1.07;;;21.80;83.70;;;;;;5080945;28;20724;-73
2023/09/19 13:00:47;;;;;;;1.37;1.00;;;21.80;82.40;;;;;;5074825;28;20640;-73
2023/09/19 13:03:18;;;;;;;0.80;0.80;;;21.80;81.20;;;;;;5080847;28;20647;-74
2023/09/19 13:05:50;;;;;;;3.13;0.80;;;22.00;84.20;;;;;;5080587;28;21354;-74
2023/09/19 13:08:38;;;;;;;0.90;0.90;;;22.10;82.70;;;;;;5075789;28;20994;-76
2023/09/19 13:11:12;;;;;;;0.90;0.90;;;21.80;82.30;;;;;;5078357;28;20637;-74
2023/09/19 13:13:47;;;;;;;1.00;1.00;;;21.90;81.40;;;;;;5082047;28;20634;-74